Flight Track Log - Related Links

Times and Time Zones

All times are in EDT time to prevent confusion due to time zone crossing. See the ASQ5745 flight status page for this flight to view local times or setup timezone preferences in your user account.


Time Position Orientation Groundspeed Altitude Reporting Facility
EDT Latitude Longitude Course Direction KTS MPH feet Rate Location/Type
Mon 08:24:11 AM 38.9833 -77.4500 North 174 200 2,200  Level Potomac TRACON
Mon 08:25:05 AM 39.0333 -77.4833 333° Northwest 235 270 3,800 2,199 Climbing Potomac TRACON
Mon 08:26:00 AM 39.2193 -77.4500 North  Level FlightAware Approximate
Mon 08:26:52 AM 39.1675 -77.4789 North 254 292 8,100  Level Washington Center
Mon 08:27:00 AM 39.3146 -77.4500 North  Level FlightAware Approximate
Mon 08:27:53 AM 39.2469 -77.4703 North 274 315 10,400  Level Washington Center
Mon 08:28:00 AM 39.4099 -77.4500 North  Level FlightAware Approximate
Mon 08:28:53 AM 39.3344 -77.4644 North 286 329 12,400  Level Washington Center
Mon 08:29:00 AM 39.5052 -77.4500 North  Level FlightAware Approximate
Mon 08:29:54 AM 39.4242 -77.4642 360° North 311 358 13,000  Level Washington Center
Mon 08:31:52 AM 39.6050 -77.4539 North 337 388 15,200 1,281 Climbing New York Center
Mon 08:32:52 AM 39.7114 -77.4533 360° North 347 399 16,800 1,339 Climbing New York Center
Mon 08:33:53 AM 39.8011 -77.4536 360° North 352 405 17,900 1,388 Climbing New York Center
Mon 08:34:53 AM 39.9114 -77.4208 13° North 362 417 19,600 1,450 Climbing New York Center
Mon 08:35:53 AM 40.0011 -77.3481 32° Northeast 363 418 20,800 1,059 Climbing New York Center
Mon 08:36:52 AM 40.0969 -77.2731 31° Northeast 371 427 21,700 900 Climbing New York Center
Mon 08:37:53 AM 40.1800 -77.2019 33° Northeast 393 452 22,600 843 Climbing New York Center
Mon 08:38:53 AM 40.2783 -77.1211 32° Northeast 407 468 23,400 814 Climbing New York Center
Mon 08:39:51 AM 40.3786 -77.0378 32° Northeast 412 474 24,200 814 Climbing New York Center
Mon 08:40:51 AM 40.4828 -76.9572 30° Northeast 423 487 25,000 793 Climbing New York Center
Mon 08:41:52 AM 40.5964 -76.9017 20° North 423 487 25,800 694 Climbing New York Center
Mon 08:42:52 AM 40.7136 -76.8464 20° North 428 493 26,400 600 Climbing New York Center
Mon 08:43:52 AM 40.8292 -76.7908 20° North 438 504 27,000 303 Climbing New York Center
Mon 08:44:51 AM 40.9486 -76.7356 19° North 443 510 27,000  Level New York Center
Mon 08:45:51 AM 41.0683 -76.6772 20° North 448 516 27,000  Level New York Center
Mon 08:46:52 AM 41.1858 -76.6186 21° North 448 516 27,000  Level New York Center
Mon 08:47:52 AM 41.3008 -76.5678 18° North 443 510 27,000  Level New York Center
Mon 08:48:53 AM 41.4289 -76.5039 21° North 438 504 27,000  Level New York Center
Mon 08:49:51 AM 41.5439 -76.4472 20° North 438 504 27,000  Level New York Center
Mon 08:50:52 AM 41.6572 -76.3875 21° North 438 504 27,000 -246 Level New York Center
Mon 08:51:53 AM 41.7744 -76.3308 20° North 438 504 26,500 -744 Descending New York Center
Mon 08:52:53 AM 41.8833 -76.2756 21° North 438 504 25,500 -1,017 Descending New York Center
Mon 08:53:51 AM 41.9897 -76.2231 20° North 427 491 24,500 -469 Descending New York Center
Mon 08:56:05 AM 42.1928 -76.0497 32° Northeast 381 438 24,000 -155 Descending Boston Center
Mon 08:57:05 AM 42.2389 -75.9122 66° East 374 430 24,000 -50 Level Boston Center
Mon 08:58:05 AM 42.2786 -75.7711 69° East 384 442 23,900 -600 Descending Boston Center
Mon 08:59:05 AM 42.2831 -75.6169 88° East 391 450 22,800 -1,050 Descending Boston Center
Mon 09:00:05 AM 42.2892 -75.4658 87° East 396 456 21,800 -1,200 Descending Boston Center
Mon 09:01:05 AM 42.2992 -75.3175 85° East 401 461 20,400 -1,400 Descending Boston Center
Mon 09:02:05 AM 42.3089 -75.1803 84° East 391 450 19,000 -1,300 Descending Boston Center
Mon 09:03:05 AM 42.3183 -75.0486 84° East 369 425 17,800 -1,300 Descending Boston Center
Mon 09:04:05 AM 42.3400 -74.9119 78° East 364 419 16,400 -1,300 Descending Boston Center
Mon 09:05:05 AM 42.3778 -74.8122 63° Northeast 358 412 15,200 -1,474 Descending Boston Center
Mon 09:05:59 AM 42.4261 -74.6847 63° Northeast 345 397 13,600 -1,600 Descending Boston Center
Mon 09:07:05 AM 42.4681 -74.5594 66° East 339 390 12,000 -1,238 Descending Boston Center
Mon 09:08:05 AM 42.4911 -74.4364 76° East 328 377 11,000 -650 Descending Boston Center
Mon 09:09:05 AM 42.5142 -74.3189 75° East 323 372 10,700 -1,163 Descending Boston Center
Mon 09:10:14 AM 42.5389 -74.1956 75° East 304 350 8,500 -1,850 Descending Boston Center
Mon 09:11:05 AM 42.5550 -74.1003 77° East 305 351 7,000 -1,820 Descending Boston Center
Mon 09:12:16 AM 42.5756 -73.9794 77° East 280 322 4,800 -1,750 Descending Boston Center
Mon 09:13:05 AM 42.5892 -73.8953 78° East 276 318 3,500 -1,156 Descending Boston Center
Mon 09:14:05 AM 42.6069 -73.7969 76° East 276 318 2,700 -909 Descending Boston Center
Mon 09:15:17 AM 42.6797 -73.8042 356° North 169 194 1,500 -902 Descending Boston Center
Mon 09:16:18 AM 42.7214 -73.8078 356° North 136 157 700 -787 Descending Boston Center

Login

Don't have an account? Register now (free) for customized features, flight alerts, and more!